Time;durP1;ratioP1;P1;durP2;ratioP2;P2;SDS_P1;SDS_P2;PMS_P1;PMS_P2;Temp;Humidity;BMP_temperature;BMP_pressure;BME280_temperature;BME280_humidity;BME280_pressure;Samples;Min_cycle;Max_cycle;Signal;HPM_P1;HPM_P2
2022/05/20 00:02:09;;;;;;;;;;;;;;;;;;4984231;28;19933;-64
2022/05/20 00:04:35;;;;;;;;;;;;;;;;;;4981838;28;19917;-65
2022/05/20 00:07:00;;;;;;;;;;;;;;;;;;4983467;28;20506;-65
2022/05/20 00:09:30;;;;;;;;;;;;;;;;;;4979505;28;19960;-65
2022/05/20 00:11:57;;;;;;;;;;;;;;;;;;4999345;28;19957;-64
2022/05/20 00:14:23;;;;;;;;;;;;;;;;;;4980129;28;20024;-65
2022/05/20 00:16:48;;;;;;;;;;;;;;;;;;4984302;28;19948;-65
2022/05/20 00:19:13;;;;;;;;;;;;;;;;;;4975618;28;20271;-65
2022/05/20 00:21:38;;;;;;;;;;;;;;;;;;4977518;28;19925;-64
2022/05/20 00:24:06;;;;;;;;;;;;;;;;;;4983058;28;19928;-65
2022/05/20 00:26:31;;;;;;;;;;;;;;;;;;4977873;28;19928;-65
2022/05/20 00:28:57;;;;;;;;;;;;;;;;;;4985096;28;20546;-64
2022/05/20 00:31:22;;;;;;;;;;;;;;;;;;4979475;28;20759;-64
2022/05/20 00:33:50;;;;;;;;;;;;;;;;;;4980166;28;19960;-64
2022/05/20 00:36:15;;;;;;;;;;;;;;;;;;4978505;28;20373;-65
2022/05/20 00:38:41;;;;;;;;;;;;;;;;;;4966011;28;19928;-65
2022/05/20 00:41:06;;;;;;;;;;;;;;;;;;4981298;28;19917;-64
2022/05/20 00:43:32;;;;;;;;;;;;;;;;;;5010355;28;19933;-64
2022/05/20 00:45:57;;;;;;;;;;;;;;;;;;4979991;28;19921;-64
2022/05/20 00:48:22;;;;;;;;;;;;;;;;;;4976056;28;20068;-64
2022/05/20 00:50:48;;;;;;;;;;;;;;;;;;4976769;28;20920;-64
2022/05/20 00:53:16;;;;;;;;;;;;;;;;;;4976997;28;19986;-64
2022/05/20 00:55:44;;;;;;;;;;;;;;;;;;5007571;28;19922;-63
2022/05/20 00:58:09;;;;;;;;;;;;;;;;;;4979760;28;19928;-62
2022/05/20 01:00:34;;;;;;;;;;;;;;;;;;4977507;28;19922;-63
2022/05/20 01:03:00;;;;;;;;;;;;;;;;;;5009648;28;20060;-63
2022/05/20 01:05:28;;;;;;;;;;;;;;;;;;4978841;28;19972;-64
2022/05/20 01:07:53;;;;;;;;;;;;;;;;;;4996798;28;19925;-68
2022/05/20 01:10:19;;;;;;;;;;;;;;;;;;4995371;28;19918;-63
2022/05/20 01:12:44;;;;;;;;;;;;;;;;;;4978368;28;19926;-64
2022/05/20 01:15:10;;;;;;;;;;;;;;;;;;4980086;28;20020;-63
2022/05/20 01:17:35;;;;;;;;;;;;;;;;;;4976516;28;19921;-64
2022/05/20 01:20:01;;;;;;;;;;;;;;;;;;4980310;28;20157;-63
2022/05/20 01:22:26;;;;;;;;;;;;;;;;;;4977055;28;19921;-64
2022/05/20 01:24:52;;;;;;;;;;;;;;;;;;4978338;28;19940;-64
2022/05/20 01:27:17;;;;;;;;;;;;;;;;;;4999177;28;19928;-65
2022/05/20 01:29:42;;;;;;;;;;;;;;;;;;4979766;28;20309;-65
2022/05/20 01:32:10;;;;;;;;;;;;;;;;;;4979950;28;20008;-63
2022/05/20 01:34:38;;;;;;;;;;;;;;;;;;4987637;28;20056;-64
2022/05/20 01:37:05;;;;;;;;;;;;;;;;;;4961746;28;19924;-65
2022/05/20 01:39:31;;;;;;;;;;;;;;;;;;4984835;28;20489;-65
2022/05/20 01:41:57;;;;;;;;;;;;;;;;;;5011963;28;19929;-63
2022/05/20 01:44:22;;;;;;;;;;;;;;;;;;5013862;28;20557;-65
2022/05/20 01:46:48;;;;;;;;;;;;;;;;;;4981949;28;20032;-64
2022/05/20 01:49:16;;;;;;;;;;;;;;;;;;4986818;28;19917;-63
2022/05/20 01:51:44;;;;;;;;;;;;;;;;;;4969043;28;20896;-63
2022/05/20 01:54:09;;;;;;;;;;;;;;;;;;4987032;28;19925;-64
2022/05/20 01:56:35;;;;;;;;;;;;;;;;;;4981373;28;19925;-64
2022/05/20 01:59:00;;;;;;;;;;;;;;;;;;4980176;28;19928;-65
2022/05/20 02:01:25;;;;;;;;;;;;;;;;;;4997190;28;20274;-64
2022/05/20 02:03:51;;;;;;;;;;;;;;;;;;5012831;28;19930;-65
2022/05/20 02:06:16;;;;;;;;;;;;;;;;;;4982398;28;20000;-64
2022/05/20 02:08:42;;;;;;;;;;;;;;;;;;4980265;28;19921;-64
2022/05/20 02:11:07;;;;;;;;;;;;;;;;;;4987003;28;19922;-65
2022/05/20 02:13:32;;;;;;;;;;;;;;;;;;4980166;28;19926;-65
2022/05/20 02:15:59;;;;;;;;;;;;;;;;;;4980244;28;19922;-65
2022/05/20 02:18:26;;;;;;;;;;;;;;;;;;4979336;28;20020;-65
2022/05/20 02:20:52;;;;;;;;;;;;;;;;;;4986543;28;19921;-64
2022/05/20 02:23:17;;;;;;;;;;;;;;;;;;4994914;28;19922;-64
2022/05/20 02:25:44;;;;;;;;;;;;;;;;;;4983570;28;20008;-64
2022/05/20 02:28:09;;;;;;;;;;;;;;;;;;4980508;28;19963;-63
2022/05/20 02:30:34;;;;;;;;;;;;;;;;;;4986678;28;19995;-64
2022/05/20 02:33:00;;;;;;;;;;;;;;;;;;5010303;28;19980;-64
2022/05/20 02:35:25;;;;;;;;;;;;;;;;;;4985747;28;19971;-63
2022/05/20 02:37:51;;;;;;;;;;;;;;;;;;4979061;28;19921;-64
2022/05/20 02:40:21;;;;;;;;;;;;;;;;;;4980398;28;19922;-64
2022/05/20 02:42:46;;;;;;;;;;;;;;;;;;4985828;28;19936;-64
2022/05/20 02:45:12;;;;;;;;;;;;;;;;;;4980001;28;20455;-66
2022/05/20 02:47:40;;;;;;;;;;;;;;;;;;4998720;28;19921;-63
2022/05/20 02:50:06;;;;;;;;;;;;;;;;;;4979605;28;19928;-63
2022/05/20 02:52:31;;;;;;;;;;;;;;;;;;4974743;28;19925;-64
2022/05/20 02:54:56;;;;;;;;;;;;;;;;;;4995583;28;19930;-64
2022/05/20 02:57:21;;;;;;;;;;;;;;;;;;5011429;28;20436;-63
2022/05/20 03:05:15;;;;;;;;;;;;;;;;;;4985780;28;19925;-64
2022/05/20 03:07:43;;;;;;;;;;;;;;;;;;4977805;28;19924;-63
2022/05/20 03:10:08;;;;;;;;;;;;;;;;;;4980894;28;20300;-64
2022/05/20 03:12:36;;;;;;;;;;;;;;;;;;4978382;28;19953;-64
2022/05/20 03:15:03;;;;;;;;;;;;;;;;;;4982243;28;19932;-64
2022/05/20 03:17:29;;;;;;;;;;;;;;;;;;4987513;28;19922;-64
2022/05/20 03:19:54;;;;;;;;;;;;;;;;;;4980875;28;19964;-65
2022/05/20 03:22:19;;;;;;;;;;;;;;;;;;4977616;28;19922;-64
2022/05/20 03:24:47;;;;;;;;;;;;;;;;;;4984832;28;20278;-64
2022/05/20 03:27:16;;;;;;;;;;;;;;;;;;4984509;28;20031;-64
2022/05/20 03:29:44;;;;;;;;;;;;;;;;;;4992381;28;19921;-63
2022/05/20 03:32:10;;;;;;;;;;;;;;;;;;4984376;28;19948;-64
2022/05/20 03:34:36;;;;;;;;;;;;;;;;;;4978411;28;19991;-64
2022/05/20 03:37:01;;;;;;;;;;;;;;;;;;4978715;28;19975;-64
2022/05/20 03:39:27;;;;;;;;;;;;;;;;;;4980703;28;19918;-64
2022/05/20 03:41:55;;;;;;;;;;;;;;;;;;5008530;28;19933;-63
2022/05/20 03:44:23;;;;;;;;;;;;;;;;;;4996375;28;19921;-64
2022/05/20 03:46:48;;;;;;;;;;;;;;;;;;4986654;28;19948;-64
2022/05/20 03:49:14;;;;;;;;;;;;;;;;;;4967433;28;19925;-64
2022/05/20 03:51:39;;;;;;;;;;;;;;;;;;5011097;28;19948;-64
2022/05/20 03:54:05;;;;;;;;;;;;;;;;;;4978888;28;19930;-65
2022/05/20 03:56:35;;;;;;;;;;;;;;;;;;4979580;28;20443;-65
2022/05/20 03:59:00;;;;;;;;;;;;;;;;;;4979733;28;19956;-64
2022/05/20 04:04:10;;;;;;;;;;;;;;;;;;4982191;28;19929;-65
2022/05/20 04:06:36;;;;;;;;;;;;;;;;;;4977864;28;19921;-64
2022/05/20 04:09:03;;;;;;;;;;;;;;;;;;4981390;28;19921;-65
2022/05/20 04:11:32;;;;;;;;;;;;;;;;;;4977808;28;20007;-64
2022/05/20 04:13:57;;;;;;;;;;;;;;;;;;4980690;28;19922;-64
2022/05/20 04:16:25;;;;;;;;;;;;;;;;;;5002815;28;19968;-64
2022/05/20 04:18:50;;;;;;;;;;;;;;;;;;4984928;28;19922;-64
2022/05/20 04:21:16;;;;;;;;;;;;;;;;;;4980319;28;19918;-64
2022/05/20 04:23:42;;;;;;;;;;;;;;;;;;4978830;28;20404;-64
2022/05/20 04:26:07;;;;;;;;;;;;;;;;;;4978581;28;19922;-64
2022/05/20 04:28:32;;;;;;;;;;;;;;;;;;4986212;28;20068;-63
2022/05/20 04:30:58;;;;;;;;;;;;;;;;;;4986142;28;19928;-64
2022/05/20 04:33:25;;;;;;;;;;;;;;;;;;4972589;28;20847;-63
2022/05/20 04:35:53;;;;;;;;;;;;;;;;;;4981914;28;19966;-64
2022/05/20 04:38:21;;;;;;;;;;;;;;;;;;4998051;28;19989;-65
2022/05/20 04:46:56;;;;;;;;;;;;;;;;;;4986040;28;20431;-64
2022/05/20 04:49:02;;;;;;;;;;;;;;;;;;4982905;28;19930;-64
2022/05/20 04:51:28;;;;;;;;;;;;;;;;;;4997727;28;20496;-65
2022/05/20 04:56:37;;;;;;;;;;;;;;;;;;4984151;28;20588;-65
2022/05/20 04:59:03;;;;;;;;;;;;;;;;;;4983338;28;19928;-64
2022/05/20 05:01:28;;;;;;;;;;;;;;;;;;4982458;28;19980;-64
2022/05/20 05:03:56;;;;;;;;;;;;;;;;;;4983583;28;19996;-64
2022/05/20 05:06:23;;;;;;;;;;;;;;;;;;4981830;28;19983;-64
2022/05/20 05:08:48;;;;;;;;;;;;;;;;;;5004479;28;20377;-65
2022/05/20 05:11:13;;;;;;;;;;;;;;;;;;5018778;28;19933;-64
2022/05/20 05:13:41;;;;;;;;;;;;;;;;;;4987450;28;20794;-64
2022/05/20 05:16:06;;;;;;;;;;;;;;;;;;4988620;28;19921;-65
2022/05/20 05:18:32;;;;;;;;;;;;;;;;;;4987918;28;19922;-64
2022/05/20 05:20:58;;;;;;;;;;;;;;;;;;4986817;28;20019;-65
2022/05/20 05:23:24;;;;;;;;;;;;;;;;;;4986828;28;19922;-66
2022/05/20 05:25:49;;;;;;;;;;;;;;;;;;5010371;28;21793;-65
2022/05/20 05:28:17;;;;;;;;;;;;;;;;;;5018811;28;19976;-66
2022/05/20 05:30:42;;;;;;;;;;;;;;;;;;4987804;28;19928;-64
2022/05/20 05:33:08;;;;;;;;;;;;;;;;;;5017554;28;19929;-66
2022/05/20 05:35:33;;;;;;;;;;;;;;;;;;4977795;28;19918;-64
2022/05/20 05:37:58;;;;;;;;;;;;;;;;;;4983233;28;19928;-64
2022/05/20 05:40:23;;;;;;;;;;;;;;;;;;4999918;28;19929;-65
2022/05/20 05:42:49;;;;;;;;;;;;;;;;;;4984957;28;19925;-65
2022/05/20 05:45:15;;;;;;;;;;;;;;;;;;4986787;28;19921;-65
2022/05/20 05:47:42;;;;;;;;;;;;;;;;;;4989251;28;19968;-65
2022/05/20 05:50:08;;;;;;;;;;;;;;;;;;4986114;28;19918;-66
2022/05/20 05:52:33;;;;;;;;;;;;;;;;;;4985262;28;19929;-65
2022/05/20 05:55:01;;;;;;;;;;;;;;;;;;4992672;28;19930;-65
2022/05/20 05:57:26;;;;;;;;;;;;;;;;;;4984697;28;19921;-67
2022/05/20 05:59:54;;;;;;;;;;;;;;;;;;4984455;28;20012;-66
2022/05/20 06:02:21;;;;;;;;;;;;;;;;;;4983252;28;20012;-66
2022/05/20 06:04:50;;;;;;;;;;;;;;;;;;4987361;28;20857;-67
2022/05/20 06:07:15;;;;;;;;;;;;;;;;;;4981691;28;21935;-66
2022/05/20 06:09:41;;;;;;;;;;;;;;;;;;4985643;28;19918;-67
2022/05/20 06:12:10;;;;;;;;;;;;;;;;;;5017081;28;20051;-64
2022/05/20 06:14:35;;;;;;;;;;;;;;;;;;4985230;28;20818;-66
2022/05/20 06:17:01;;;;;;;;;;;;;;;;;;5016341;28;19922;-66
2022/05/20 06:19:29;;;;;;;;;;;;;;;;;;4984404;28;19968;-66
2022/05/20 06:21:54;;;;;;;;;;;;;;;;;;4980859;28;19921;-65
2022/05/20 06:24:20;;;;;;;;;;;;;;;;;;4985067;28;19918;-65
2022/05/20 06:26:45;;;;;;;;;;;;;;;;;;5008746;28;19928;-66
2022/05/20 06:29:10;;;;;;;;;;;;;;;;;;5016805;28;20489;-65
2022/05/20 06:31:36;;;;;;;;;;;;;;;;;;4992161;28;20565;-65
2022/05/20 06:34:01;;;;;;;;;;;;;;;;;;4999825;28;20076;-65
2022/05/20 06:39:49;;;;;;;;;;;;;;;;;;4984781;28;19922;-66
2022/05/20 06:42:12;;;;;;;;;;;;;;;;;;4983813;28;19926;-65
2022/05/20 06:44:38;;;;;;;;;;;;;;;;;;4984433;28;19972;-65
2022/05/20 06:47:04;;;;;;;;;;;;;;;;;;4984333;28;19952;-64
2022/05/20 06:49:29;;;;;;;;;;;;;;;;;;4999813;28;20312;-66
2022/05/20 06:51:56;;;;;;;;;;;;;;;;;;4981218;28;19969;-66
2022/05/20 06:54:25;;;;;;;;;;;;;;;;;;4999452;28;20393;-66
2022/05/20 06:56:51;;;;;;;;;;;;;;;;;;4984429;28;19922;-65
2022/05/20 06:59:17;;;;;;;;;;;;;;;;;;4984699;28;21066;-65
2022/05/20 07:01:42;;;;;;;;;;;;;;;;;;4988482;28;20282;-65
2022/05/20 07:04:10;;;;;;;;;;;;;;;;;;5016880;28;19929;-65
2022/05/20 07:06:38;;;;;;;;;;;;;;;;;;4974546;28;20853;-66
2022/05/20 07:09:03;;;;;;;;;;;;;;;;;;4991789;28;19925;-65
2022/05/20 07:11:29;;;;;;;;;;;;;;;;;;4984506;28;19921;-65
2022/05/20 07:13:55;;;;;;;;;;;;;;;;;;4991127;28;19952;-66
2022/05/20 07:16:25;;;;;;;;;;;;;;;;;;4983919;28;19964;-66
2022/05/20 07:18:50;;;;;;;;;;;;;;;;;;4992459;28;19929;-65
2022/05/20 07:21:16;;;;;;;;;;;;;;;;;;4982186;28;19917;-65
2022/05/20 07:23:42;;;;;;;;;;;;;;;;;;4985162;28;19980;-66
2022/05/20 07:26:08;;;;;;;;;;;;;;;;;;4981862;28;20534;-66
2022/05/20 07:28:34;;;;;;;;;;;;;;;;;;4981210;28;19921;-66
2022/05/20 07:30:59;;;;;;;;;;;;;;;;;;4984148;28;19917;-67
2022/05/20 07:33:25;;;;;;;;;;;;;;;;;;4983697;28;19924;-66
2022/05/20 07:35:51;;;;;;;;;;;;;;;;;;4981473;28;19920;-66
2022/05/20 07:38:16;;;;;;;;;;;;;;;;;;4990721;28;20484;-65
2022/05/20 07:40:44;;;;;;;;;;;;;;;;;;4989933;28;19961;-65
2022/05/20 07:43:09;;;;;;;;;;;;;;;;;;4983935;28;19935;-67
2022/05/20 07:45:34;;;;;;;;;;;;;;;;;;4982294;28;20578;-68
2022/05/20 07:47:59;;;;;;;;;;;;;;;;;;4990011;28;19921;-66
2022/05/20 07:50:25;;;;;;;;;;;;;;;;;;4981186;28;19921;-67
2022/05/20 07:55:34;;;;;;;;;;;;;;;;;;4984876;28;19929;-69
2022/05/20 07:58:00;;;;;;;;;;;;;;;;;;4989920;28;20340;-66
2022/05/20 08:00:26;;;;;;;;;;;;;;;;;;4983389;28;20020;-67
2022/05/20 08:02:51;;;;;;;;;;;;;;;;;;4990605;28;20057;-66
2022/05/20 08:05:17;;;;;;;;;;;;;;;;;;4989640;28;20329;-66
2022/05/20 08:07:42;;;;;;;;;;;;;;;;;;5012982;28;19921;-66
2022/05/20 08:10:08;;;;;;;;;;;;;;;;;;4989847;28;20393;-66
2022/05/20 08:12:33;;;;;;;;;;;;;;;;;;4973114;28;19917;-68
2022/05/20 08:14:59;;;;;;;;;;;;;;;;;;4982774;28;19926;-66
2022/05/20 08:17:27;;;;;;;;;;;;;;;;;;5014319;28;19922;-66
2022/05/20 08:19:53;;;;;;;;;;;;;;;;;;4984462;28;19921;-65
2022/05/20 08:22:22;;;;;;;;;;;;;;;;;;5001499;28;19984;-67
2022/05/20 08:24:47;;;;;;;;;;;;;;;;;;4983034;28;19922;-66
2022/05/20 08:27:13;;;;;;;;;;;;;;;;;;4981818;28;20391;-67
2022/05/20 08:29:38;;;;;;;;;;;;;;;;;;4980679;28;19956;-66
2022/05/20 08:32:03;;;;;;;;;;;;;;;;;;5014504;28;19940;-66
2022/05/20 08:34:29;;;;;;;;;;;;;;;;;;4991614;28;19961;-67
2022/05/20 08:36:54;;;;;;;;;;;;;;;;;;4984594;28;19918;-67
2022/05/20 08:39:20;;;;;;;;;;;;;;;;;;5015735;28;19928;-67
2022/05/20 08:41:45;;;;;;;;;;;;;;;;;;4984536;28;20032;-67
2022/05/20 08:44:14;;;;;;;;;;;;;;;;;;5011981;28;21752;-66
2022/05/20 08:46:39;;;;;;;;;;;;;;;;;;4977694;28;19929;-67
2022/05/20 08:49:06;;;;;;;;;;;;;;;;;;4987256;28;20203;-67
2022/05/20 08:51:33;;;;;;;;;;;;;;;;;;4986223;28;20453;-66
2022/05/20 08:53:58;;;;;;;;;;;;;;;;;;4985983;28;19932;-66
2022/05/20 08:56:23;;;;;;;;;;;;;;;;;;4993008;28;19930;-66
2022/05/20 08:58:49;;;;;;;;;;;;;;;;;;4994976;28;19918;-67
2022/05/20 09:01:14;;;;;;;;;;;;;;;;;;4987301;28;20972;-69
2022/05/20 09:03:40;;;;;;;;;;;;;;;;;;4987372;28;19921;-67
2022/05/20 09:06:05;;;;;;;;;;;;;;;;;;4986004;28;19926;-68
2022/05/20 09:08:33;;;;;;;;;;;;;;;;;;4986709;28;19968;-67
2022/05/20 09:10:58;;;;;;;;;;;;;;;;;;4994251;28;19925;-67
2022/05/20 09:15:43;;;;;;;;;;;;;;;;;;4984311;28;19933;-67
2022/05/20 09:16:09;;;;;;;;;;;;;;;;;;4986564;28;20194;-68
2022/05/20 09:18:34;;;;;;;;;;;;;;;;;;4990381;28;19944;-67
2022/05/20 09:21:00;;;;;;;;;;;;;;;;;;4988160;28;19925;-65
2022/05/20 09:23:25;;;;;;;;;;;;;;;;;;4987430;28;19964;-67
2022/05/20 09:25:50;;;;;;;;;;;;;;;;;;4986612;28;19964;-68
2022/05/20 09:28:18;;;;;;;;;;;;;;;;;;4985242;28;19941;-66
2022/05/20 09:30:43;;;;;;;;;;;;;;;;;;4986037;28;20412;-66
2022/05/20 09:33:09;;;;;;;;;;;;;;;;;;4992168;28;19921;-68
2022/05/20 09:35:34;;;;;;;;;;;;;;;;;;5001885;28;19921;-67
2022/05/20 09:37:59;;;;;;;;;;;;;;;;;;4985082;28;19924;-67
2022/05/20 09:40:25;;;;;;;;;;;;;;;;;;4986784;28;20384;-67
2022/05/20 09:42:50;;;;;;;;;;;;;;;;;;4983456;28;19918;-66
2022/05/20 09:45:16;;;;;;;;;;;;;;;;;;5018174;28;22075;-67
2022/05/20 09:47:41;;;;;;;;;;;;;;;;;;4994077;28;19917;-67
2022/05/20 09:50:07;;;;;;;;;;;;;;;;;;4992976;28;19929;-67
2022/05/20 09:52:32;;;;;;;;;;;;;;;;;;4984947;28;19964;-66
2022/05/20 09:54:58;;;;;;;;;;;;;;;;;;4985761;28;19949;-68
2022/05/20 09:57:25;;;;;;;;;;;;;;;;;;4986078;28;19961;-67
2022/05/20 09:59:52;;;;;;;;;;;;;;;;;;4986922;28;20428;-67
2022/05/20 10:02:17;;;;;;;;;;;;;;;;;;4992516;28;19963;-67
2022/05/20 10:04:43;;;;;;;;;;;;;;;;;;4989421;28;19996;-65
2022/05/20 10:07:10;;;;;;;;;;;;;;;;;;4982572;28;19952;-67
2022/05/20 10:09:35;;;;;;;;;;;;;;;;;;4988079;28;20060;-67
2022/05/20 10:12:01;;;;;;;;;;;;;;;;;;4988825;28;20327;-65
2022/05/20 10:14:26;;;;;;;;;;;;;;;;;;4984196;28;19921;-68
2022/05/20 10:16:52;;;;;;;;;;;;;;;;;;4983753;28;19918;-66
2022/05/20 10:19:18;;;;;;;;;;;;;;;;;;4986427;28;19925;-67
2022/05/20 10:21:43;;;;;;;;;;;;;;;;;;4986706;28;20077;-67
2022/05/20 10:24:09;;;;;;;;;;;;;;;;;;5009850;28;20497;-67
2022/05/20 10:26:34;;;;;;;;;;;;;;;;;;4984147;28;19917;-68
2022/05/20 10:34:27;;;;;;;;;;;;;;;;;;4987742;28;19921;-68
2022/05/20 10:36:52;;;;;;;;;;;;;;;;;;4983961;28;19983;-67
2022/05/20 10:39:18;;;;;;;;;;;;;;;;;;5008191;28;19925;-67
2022/05/20 10:41:43;;;;;;;;;;;;;;;;;;4986017;28;19917;-70
2022/05/20 10:49:37;;;;;;;;;;;;;;;;;;4985161;28;19934;-69
2022/05/20 10:52:03;;;;;;;;;;;;;;;;;;4985386;28;19925;-69
2022/05/20 10:54:28;;;;;;;;;;;;;;;;;;4984201;28;19948;-68
2022/05/20 10:56:53;;;;;;;;;;;;;;;;;;4984769;28;19996;-69
2022/05/20 10:59:19;;;;;;;;;;;;;;;;;;4993391;28;19928;-70
2022/05/20 11:01:44;;;;;;;;;;;;;;;;;;4988546;28;19917;-69
2022/05/20 11:04:10;;;;;;;;;;;;;;;;;;4976458;28;20015;-70
2022/05/20 11:06:35;;;;;;;;;;;;;;;;;;4982935;28;19922;-70
2022/05/20 11:09:01;;;;;;;;;;;;;;;;;;4991487;28;20035;-71
2022/05/20 11:11:26;;;;;;;;;;;;;;;;;;4983457;28;19925;-70
2022/05/20 11:13:51;;;;;;;;;;;;;;;;;;4992663;28;19921;-67
2022/05/20 11:16:17;;;;;;;;;;;;;;;;;;4983312;28;19925;-70
2022/05/20 11:18:42;;;;;;;;;;;;;;;;;;4992851;28;19925;-71
2022/05/20 11:21:08;;;;;;;;;;;;;;;;;;4992077;28;19968;-71
2022/05/20 11:23:33;;;;;;;;;;;;;;;;;;4983935;28;19928;-71
2022/05/20 11:25:58;;;;;;;;;;;;;;;;;;4975889;28;19936;-68
2022/05/20 11:28:24;;;;;;;;;;;;;;;;;;4988920;28;19957;-69
2022/05/20 11:30:49;;;;;;;;;;;;;;;;;;4976100;28;21076;-70
2022/05/20 11:33:14;;;;;;;;;;;;;;;;;;5000379;28;19961;-69
2022/05/20 11:35:40;;;;;;;;;;;;;;;;;;4984445;28;19921;-70
2022/05/20 11:38:05;;;;;;;;;;;;;;;;;;4997937;28;19921;-69
2022/05/20 11:40:31;;;;;;;;;;;;;;;;;;4981938;28;19963;-70
2022/05/20 11:42:56;;;;;;;;;;;;;;;;;;4984446;28;20020;-70
2022/05/20 11:45:22;;;;;;;;;;;;;;;;;;4987509;28;20385;-71
2022/05/20 11:47:47;;;;;;;;;;;;;;;;;;4984507;28;19921;-70
2022/05/20 11:50:13;;;;;;;;;;;;;;;;;;4983763;28;19917;-70
2022/05/20 11:52:40;;;;;;;;;;;;;;;;;;4989903;28;20047;-70
2022/05/20 11:55:06;;;;;;;;;;;;;;;;;;4984299;28;20844;-69
2022/05/20 11:57:31;;;;;;;;;;;;;;;;;;4987366;28;20372;-68
2022/05/20 11:59:56;;;;;;;;;;;;;;;;;;4991789;28;21851;-67
2022/05/20 12:02:22;;;;;;;;;;;;;;;;;;4980938;28;19917;-70
2022/05/20 12:04:47;;;;;;;;;;;;;;;;;;4984494;28;19978;-69
2022/05/20 12:07:13;;;;;;;;;;;;;;;;;;5012702;28;19921;-69
2022/05/20 12:09:38;;;;;;;;;;;;;;;;;;4991443;28;19917;-70
2022/05/20 12:12:04;;;;;;;;;;;;;;;;;;4983618;28;19930;-68
2022/05/20 12:14:30;;;;;;;;;;;;;;;;;;4984032;28;19918;-69
2022/05/20 12:16:55;;;;;;;;;;;;;;;;;;4998979;28;20072;-67
2022/05/20 12:24:49;;;;;;;;;;;;;;;;;;4984368;28;19917;-68
2022/05/20 12:27:15;;;;;;;;;;;;;;;;;;5001963;28;19917;-67
2022/05/20 12:29:43;;;;;;;;;;;;;;;;;;4973412;28;19961;-68
2022/05/20 12:32:08;;;;;;;;;;;;;;;;;;4990997;28;19928;-68
2022/05/20 12:34:34;;;;;;;;;;;;;;;;;;4991198;28;19921;-69
2022/05/20 12:36:59;;;;;;;;;;;;;;;;;;4982933;28;19918;-68
2022/05/20 12:39:24;;;;;;;;;;;;;;;;;;4996242;28;20051;-67
2022/05/20 12:41:49;;;;;;;;;;;;;;;;;;4982672;28;19929;-69
2022/05/20 12:44:15;;;;;;;;;;;;;;;;;;4991473;28;20977;-67
2022/05/20 12:46:40;;;;;;;;;;;;;;;;;;4990086;28;20012;-66
2022/05/20 12:49:05;;;;;;;;;;;;;;;;;;4983531;28;19926;-65
2022/05/20 12:51:31;;;;;;;;;;;;;;;;;;4989100;28;19921;-66
2022/05/20 12:53:56;;;;;;;;;;;;;;;;;;4983543;28;19925;-66
2022/05/20 12:56:22;;;;;;;;;;;;;;;;;;4981719;28;20380;-65
2022/05/20 12:58:49;;;;;;;;;;;;;;;;;;4982791;28;19921;-67
2022/05/20 13:01:15;;;;;;;;;;;;;;;;;;5014413;28;20013;-65
2022/05/20 13:03:41;;;;;;;;;;;;;;;;;;4983222;28;20339;-70
2022/05/20 13:06:06;;;;;;;;;;;;;;;;;;4987134;28;19964;-66
2022/05/20 13:08:31;;;;;;;;;;;;;;;;;;4981539;28;20086;-66
2022/05/20 13:10:57;;;;;;;;;;;;;;;;;;4982864;28;21049;-66
2022/05/20 13:13:23;;;;;;;;;;;;;;;;;;4984047;28;20020;-68
2022/05/20 13:15:49;;;;;;;;;;;;;;;;;;4982956;28;21194;-67
2022/05/20 13:18:15;;;;;;;;;;;;;;;;;;4972906;28;19929;-66
2022/05/20 13:20:40;;;;;;;;;;;;;;;;;;5003795;28;19918;-66
2022/05/20 13:23:05;;;;;;;;;;;;;;;;;;4975686;28;19929;-67
2022/05/20 13:25:31;;;;;;;;;;;;;;;;;;4999094;28;19917;-66
2022/05/20 13:27:56;;;;;;;;;;;;;;;;;;4979826;28;19925;-67
2022/05/20 13:30:30;;;;;;;;;;;;;;;;;;4982086;28;19921;-67
2022/05/20 13:32:55;;;;;;;;;;;;;;;;;;5260501;23;19949;-68
2022/05/20 13:35:20;;;;;;;;;;;;;;;;;;4992042;28;19932;-64
2022/05/20 13:37:46;;;;;;;;;;;;;;;;;;4990980;28;20372;-65
2022/05/20 13:40:11;;;;;;;;;;;;;;;;;;4993892;28;19917;-64
2022/05/20 13:42:36;;;;;;;;;;;;;;;;;;4976878;28;19921;-66
2022/05/20 13:45:02;;;;;;;;;;;;;;;;;;4987790;28;19922;-66
2022/05/20 13:53:27;;;;;;;;;;;;;;;;;;4992661;28;20505;-65
2022/05/20 13:55:52;;;;;;;;;;;;;;;;;;4993826;28;19918;-65
2022/05/20 13:58:18;;;;;;;;;;;;;;;;;;4988312;28;19968;-66
2022/05/20 14:03:32;;;;;;;;;;;;;;;;;;4993700;28;20451;-66
2022/05/20 14:09:17;;;;;;;;;;;;;;;;;;4993420;28;19975;-65
2022/05/20 14:11:43;;;;;;;;;;;;;;;;;;4992848;28;19944;-63
2022/05/20 14:17:28;;;;;;;;;;;;;;;;;;4992693;28;19964;-61
2022/05/20 14:19:56;;;;;;;;;;;;;;;;;;4978208;28;19926;-60
2022/05/20 14:22:21;;;;;;;;;;;;;;;;;;4987376;28;19984;-60
2022/05/20 14:24:49;;;;;;;;;;;;;;;;;;4991135;28;20056;-60
2022/05/20 14:30:06;;;;;;;;;;;;;;;;;;4982490;28;19927;-60
2022/05/20 14:32:31;;;;;;;;;;;;;;;;;;4982385;28;19926;-61
2022/05/20 14:34:57;;;;;;;;;;;;;;;;;;4985732;28;20316;-60
2022/05/20 14:37:23;;;;;;;;;;;;;;;;;;4986960;28;21807;-61
2022/05/20 14:39:51;;;;;;;;;;;;;;;;;;4982594;28;19918;-60
2022/05/20 14:42:21;;;;;;;;;;;;;;;;;;4987797;28;19921;-60
2022/05/20 14:44:46;;;;;;;;;;;;;;;;;;4989176;28;19933;-60
2022/05/20 14:47:17;;;;;;;;;;;;;;;;;;4990593;28;19922;-60
2022/05/20 14:49:44;;;;;;;;;;;;;;;;;;4990150;28;20004;-60
2022/05/20 14:52:10;;;;;;;;;;;;;;;;;;4988918;28;20004;-60
2022/05/20 14:54:35;;;;;;;;;;;;;;;;;;4974375;28;19932;-60
2022/05/20 14:57:00;;;;;;;;;;;;;;;;;;4989326;28;20332;-60
2022/05/20 14:59:25;;;;;;;;;;;;;;;;;;4990816;28;20016;-60
2022/05/20 15:07:55;;;;;;;;;;;;;;;;;;4989334;28;20445;-60
2022/05/20 15:13:40;;;;;;;;;;;;;;;;;;4990348;28;19932;-60
2022/05/20 15:19:01;;;;;;;;;;;;;;;;;;4989319;28;19922;-60
2022/05/20 15:21:26;;;;;;;;;;;;;;;;;;4989182;28;19917;-60
2022/05/20 15:23:52;;;;;;;;;;;;;;;;;;4989184;28;19940;-60
2022/05/20 15:29:08;;;;;;;;;;;;;;;;;;4990503;28;20044;-63
2022/05/20 15:37:10;;;;;;;;;;;;;;;;;;4986707;28;21678;-63
2022/05/20 15:39:35;;;;;;;;;;;;;;;;;;4990143;28;19918;-62
2022/05/20 15:42:00;;;;;;;;;;;;;;;;;;4973878;28;21956;-62
2022/05/20 15:47:44;;;;;;;;;;;;;;;;;;4988850;28;19944;-61
2022/05/20 15:53:28;;;;;;;;;;;;;;;;;;4986492;28;19971;-63
2022/05/20 15:55:58;;;;;;;;;;;;;;;;;;4988300;28;20126;-61
2022/05/20 15:58:29;;;;;;;;;;;;;;;;;;4987097;28;19921;-62
2022/05/20 16:00:58;;;;;;;;;;;;;;;;;;4987559;28;20402;-63
2022/05/20 16:03:23;;;;;;;;;;;;;;;;;;4989017;28;19925;-62
2022/05/20 16:05:49;;;;;;;;;;;;;;;;;;4987928;28;21004;-62
2022/05/20 16:08:19;;;;;;;;;;;;;;;;;;4970133;28;19945;-63
2022/05/20 16:10:47;;;;;;;;;;;;;;;;;;4978547;28;19926;-63
2022/05/20 16:13:15;;;;;;;;;;;;;;;;;;4988291;28;19921;-61
2022/05/20 16:15:46;;;;;;;;;;;;;;;;;;4987318;28;19917;-61
2022/05/20 16:21:31;;;;;;;;;;;;;;;;;;4985808;28;19974;-61
2022/05/20 16:27:14;;;;;;;;;;;;;;;;;;4982453;28;19960;-61
2022/05/20 16:32:56;;;;;;;;;;;;;;;;;;4987154;28;19932;-61
2022/05/20 16:35:24;;;;;;;;;;;;;;;;;;4970673;28;20952;-64
2022/05/20 16:37:51;;;;;;;;;;;;;;;;;;4967141;28;20012;-61
2022/05/20 16:40:16;;;;;;;;;;;;;;;;;;4984583;28;19928;-66
2022/05/20 16:42:44;;;;;;;;;;;;;;;;;;4979961;28;19921;-62
2022/05/20 16:45:12;;;;;;;;;;;;;;;;;;4985155;28;19921;-65
2022/05/20 16:47:40;;;;;;;;;;;;;;;;;;4986343;28;19929;-68
2022/05/20 16:50:08;;;;;;;;;;;;;;;;;;4984321;28;19932;-62
2022/05/20 16:52:33;;;;;;;;;;;;;;;;;;4985449;28;19949;-64
2022/05/20 16:55:02;;;;;;;;;;;;;;;;;;4973298;28;20008;-59
2022/05/20 17:02:58;;;;;;;;;;;;;;;;;;4988146;28;19969;-62
2022/05/20 17:05:23;;;;;;;;;;;;;;;;;;4991653;28;20405;-61
2022/05/20 17:11:07;;;;;;;;;;;;;;;;;;4990013;28;19975;-62
2022/05/20 17:13:37;;;;;;;;;;;;;;;;;;4988827;28;19979;-61
2022/05/20 17:16:04;;;;;;;;;;;;;;;;;;4989016;28;19969;-61
2022/05/20 17:18:29;;;;;;;;;;;;;;;;;;4977789;28;19922;-62
2022/05/20 17:21:00;;;;;;;;;;;;;;;;;;4979414;28;19917;-61
2022/05/20 17:26:14;;;;;;;;;;;;;;;;;;4991034;28;19917;-62
2022/05/20 17:28:40;;;;;;;;;;;;;;;;;;4972013;28;20002;-62
2022/05/20 17:31:05;;;;;;;;;;;;;;;;;;4989514;28;19917;-61
2022/05/20 17:33:35;;;;;;;;;;;;;;;;;;4983751;28;20309;-62
2022/05/20 17:36:03;;;;;;;;;;;;;;;;;;4972092;28;20487;-63
2022/05/20 17:41:45;;;;;;;;;;;;;;;;;;4968827;28;19932;-60
2022/05/20 17:44:11;;;;;;;;;;;;;;;;;;4986863;28;19922;-61
2022/05/20 17:46:36;;;;;;;;;;;;;;;;;;4985875;28;19917;-60
2022/05/20 17:49:04;;;;;;;;;;;;;;;;;;4971197;28;21905;-60
2022/05/20 17:51:29;;;;;;;;;;;;;;;;;;4984676;28;19928;-60
2022/05/20 17:53:56;;;;;;;;;;;;;;;;;;4981999;28;19944;-61
2022/05/20 17:56:21;;;;;;;;;;;;;;;;;;4968967;28;19956;-61
2022/05/20 17:58:47;;;;;;;;;;;;;;;;;;4983473;28;20063;-60
2022/05/20 18:01:15;;;;;;;;;;;;;;;;;;4969358;28;19933;-61
2022/05/20 18:03:40;;;;;;;;;;;;;;;;;;4983580;28;20024;-59
2022/05/20 18:09:23;;;;;;;;;;;;;;;;;;4967745;28;20475;-61
2022/05/20 18:12:12;;;;;;;;;;;;;;;;;;4984633;28;19922;-59
2022/05/20 18:14:37;;;;;;;;;;;;;;;;;;4981731;28;19918;-62
2022/05/20 18:17:02;;;;;;;;;;;;;;;;;;4984596;28;19921;-61
2022/05/20 18:19:31;;;;;;;;;;;;;;;;;;4984859;28;20317;-63
2022/05/20 18:21:58;;;;;;;;;;;;;;;;;;4984360;28;19929;-65
2022/05/20 18:24:26;;;;;;;;;;;;;;;;;;4970001;28;19956;-64
2022/05/20 18:30:07;;;;;;;;;;;;;;;;;;4970171;28;19931;-65
2022/05/20 18:32:33;;;;;;;;;;;;;;;;;;4969705;28;19930;-64
2022/05/20 18:40:28;;;;;;;;;;;;;;;;;;4962560;28;19921;-61